Time;durP1;ratioP1;P1;durP2;ratioP2;P2;SDS_P1;SDS_P2;PMS_P1;PMS_P2;Temp;Humidity;BMP_temperature;BMP_pressure;BME280_temperature;BME280_humidity;BME280_pressure;Samples;Min_cycle;Max_cycle;Signal;HPM_P1;HPM_P2
2022/03/31 00:00:25;;;;;;;27.67;13.80;;;;;;;8.37;92.01;98998.88;8374705;28;20119;-63
2022/03/31 00:04:26;;;;;;;20.98;13.43;;;;;;;8.38;91.13;98992.50;8391569;28;20035;-63
2022/03/31 00:08:26;;;;;;;24.02;12.95;;;;;;;8.37;91.53;98990.78;8392450;28;20120;-63
2022/03/31 00:12:27;;;;;;;28.75;13.98;;;;;;;8.23;93.38;98991.44;8391414;28;20509;-63
2022/03/31 00:16:28;;;;;;;25.02;14.23;;;;;;;8.15;93.39;98999.44;8392850;28;20396;-63
2022/03/31 00:20:29;;;;;;;31.20;15.30;;;;;;;8.17;92.21;98986.66;8403970;28;20028;-63
2022/03/31 00:24:29;;;;;;;31.13;14.30;;;;;;;8.25;90.81;98989.41;8396770;28;20039;-64
2022/03/31 00:28:29;;;;;;;27.02;15.02;;;;;;;8.22;91.26;98981.63;8391642;28;20463;-63
2022/03/31 00:32:30;;;;;;;24.88;15.15;;;;;;;8.33;90.82;98986.75;8386186;28;20040;-63
2022/03/31 00:36:31;;;;;;;27.25;14.95;;;;;;;8.26;91.39;98988.41;8392724;28;20441;-63
2022/03/31 00:40:33;;;;;;;26.08;14.55;;;;;;;8.23;91.57;98977.97;8391801;28;20040;-63
2022/03/31 00:44:33;;;;;;;26.75;15.60;;;;;;;8.11;91.88;98981.94;8357886;28;20052;-65
2022/03/31 00:48:33;;;;;;;24.75;16.98;;;;;;;7.99;92.11;98979.53;8391977;28;20052;-63
2022/03/31 00:52:34;;;;;;;28.73;15.85;;;;;;;7.98;92.97;98967.09;8394320;28;20562;-63
2022/03/31 00:56:35;;;;;;;32.63;16.88;;;;;;;7.94;94.36;98973.78;8391895;28;20056;-63
2022/03/31 01:00:35;;;;;;;31.75;18.23;;;;;;;7.95;95.00;98962.03;8391033;28;20078;-63
2022/03/31 01:04:36;;;;;;;32.42;18.88;;;;;;;7.94;95.40;98949.56;8387636;28;20036;-63
2022/03/31 01:08:37;;;;;;;28.67;17.45;;;;;;;7.93;94.40;98947.88;8387440;28;20041;-63
2022/03/31 01:12:38;;;;;;;44.83;21.27;;;;;;;7.89;95.22;98951.91;8395873;28;20028;-63
2022/03/31 01:16:39;;;;;;;32.58;18.40;;;;;;;7.91;95.61;98938.31;8391588;28;20032;-64
2022/03/31 01:20:40;;;;;;;31.00;18.90;;;;;;;7.94;96.26;98930.72;8418990;28;20035;-63
2022/03/31 01:24:40;;;;;;;37.17;18.52;;;;;;;7.98;96.16;98925.88;8394390;28;20108;-63
2022/03/31 01:28:43;;;;;;;30.83;18.65;;;;;;;7.89;97.11;98930.38;8390793;28;20044;-63
2022/03/31 01:32:45;;;;;;;31.77;18.88;;;;;;;7.89;98.88;98934.91;8391432;28;20040;-63
2022/03/31 01:36:45;;;;;;;36.45;19.35;;;;;;;7.87;97.81;98942.31;8391424;28;20635;-63
2022/03/31 01:40:46;;;;;;;41.88;18.80;;;;;;;7.88;98.84;98928.72;8384421;28;20033;-63
2022/03/31 01:44:46;;;;;;;35.88;20.55;;;;;;;7.89;99.26;98926.84;8391254;28;20098;-63
2022/03/31 01:48:46;;;;;;;31.85;19.02;;;;;;;7.85;99.24;98917.44;8389123;28;20551;-63
2022/03/31 01:52:47;;;;;;;34.90;20.52;;;;;;;7.85;100.00;98918.28;8384336;28;20408;-63
2022/03/31 01:56:48;;;;;;;38.13;22.38;;;;;;;7.82;100.00;98913.22;8403480;28;20059;-63
2022/03/31 02:00:50;;;;;;;33.28;20.20;;;;;;;7.79;100.00;98908.16;8414184;28;20051;-63
2022/03/31 02:04:50;;;;;;;36.65;21.20;;;;;;;7.78;100.00;98901.09;8393786;28;20130;-63
2022/03/31 02:08:51;;;;;;;43.90;21.13;;;;;;;7.78;100.00;98895.69;8396205;28;20048;-63
2022/03/31 02:12:53;;;;;;;43.33;21.63;;;;;;;7.80;100.00;98885.63;8392541;28;20078;-63
2022/03/31 02:16:55;;;;;;;40.40;21.80;;;;;;;7.78;100.00;98884.94;8396309;28;20082;-63
2022/03/31 02:20:55;;;;;;;47.08;23.35;;;;;;;7.78;100.00;98882.25;8409660;28;20468;-63
2022/03/31 02:24:56;;;;;;;53.13;23.75;;;;;;;7.73;100.00;98881.91;8394541;28;20060;-63
2022/03/31 02:28:56;;;;;;;43.45;23.73;;;;;;;7.68;100.00;98878.00;8427643;28;20044;-63
2022/03/31 02:32:59;;;;;;;45.05;24.10;;;;;;;7.63;100.00;98870.44;8428522;28;20471;-63
2022/03/31 02:37:00;;;;;;;53.05;24.98;;;;;;;7.69;100.00;98879.72;8421562;28;20098;-63
2022/03/31 02:41:01;;;;;;;48.35;25.27;;;;;;;7.71;100.00;98873.16;8391934;28;20097;-63
2022/03/31 02:45:03;;;;;;;45.83;24.23;;;;;;;7.65;100.00;98872.97;8393948;28;20114;-63
2022/03/31 02:49:04;;;;;;;52.08;26.80;;;;;;;7.65;100.00;98879.19;8420597;28;20257;-63
2022/03/31 02:57:25;;;;;;;56.58;27.13;;;;;;;7.70;100.00;98860.72;8395423;28;20056;-63
2022/03/31 03:01:27;;;;;;;52.20;26.58;;;;;;;7.65;100.00;98857.69;8391620;28;20102;-63
2022/03/31 03:05:27;;;;;;;55.47;27.75;;;;;;;7.69;100.00;98859.03;8395232;28;20029;-63
2022/03/31 03:09:28;;;;;;;58.00;29.27;;;;;;;7.84;100.00;98861.94;8394928;28;20111;-63
2022/03/31 03:13:28;;;;;;;54.72;28.85;;;;;;;7.93;100.00;98861.78;8395344;28;20047;-63
2022/03/31 03:17:29;;;;;;;57.08;28.92;;;;;;;7.91;100.00;98860.28;8394758;28;20033;-63
2022/03/31 03:21:30;;;;;;;60.72;30.13;;;;;;;7.79;100.00;98849.00;8408670;28;20028;-63
2022/03/31 03:25:30;;;;;;;66.68;33.13;;;;;;;7.79;100.00;98854.38;8393074;28;20032;-63
2022/03/31 03:29:31;;;;;;;70.22;33.60;;;;;;;7.78;100.00;98858.03;8420579;28;20044;-63
2022/03/31 03:33:32;;;;;;;68.38;34.38;;;;;;;7.78;100.00;98858.03;8425169;28;20062;-63
2022/03/31 03:37:33;;;;;;;69.22;34.17;;;;;;;7.71;100.00;98840.88;8425802;28;20036;-63
2022/03/31 03:41:33;;;;;;;75.97;32.38;;;;;;;7.80;100.00;98853.34;8424572;28;20038;-63
2022/03/31 03:45:34;;;;;;;68.43;31.83;;;;;;;7.76;100.00;98852.00;8424343;28;20114;-63
2022/03/31 03:49:34;;;;;;;76.72;34.25;;;;;;;7.71;100.00;98851.66;8407935;28;20055;-63
2022/03/31 03:53:35;;;;;;;66.72;32.75;;;;;;;7.64;100.00;98845.25;8397886;28;20040;-63
2022/03/31 03:57:36;;;;;;;72.18;33.72;;;;;;;7.57;100.00;98844.19;8392553;28;20040;-63
2022/03/31 04:01:36;;;;;;;65.72;31.27;;;;;;;7.59;100.00;98841.34;8397004;28;20058;-63
2022/03/31 04:05:38;;;;;;;74.03;35.28;;;;;;;7.62;100.00;98844.56;8423556;28;20111;-63
2022/03/31 04:09:38;;;;;;;73.68;32.45;;;;;;;7.61;100.00;98845.56;8395174;28;20044;-63
2022/03/31 04:13:39;;;;;;;80.72;33.90;;;;;;;7.57;100.00;98838.00;8392887;28;20111;-63
2022/03/31 04:17:39;;;;;;;66.75;30.50;;;;;;;7.47;100.00;98838.09;8391144;28;20029;-63
2022/03/31 04:21:40;;;;;;;65.75;30.65;;;;;;;7.46;100.00;98836.44;8411407;28;20437;-63
2022/03/31 04:25:40;;;;;;;62.92;29.90;;;;;;;7.37;100.00;98832.03;8386027;28;20037;-63
2022/03/31 04:29:41;;;;;;;69.97;30.20;;;;;;;7.29;100.00;98823.91;8396178;28;20047;-63
2022/03/31 04:33:41;;;;;;;64.28;29.80;;;;;;;7.31;100.00;98827.28;8387218;28;20040;-63
2022/03/31 04:37:41;;;;;;;66.43;31.48;;;;;;;7.26;100.00;98824.25;8381381;28;20465;-63
2022/03/31 04:41:43;;;;;;;69.80;31.15;;;;;;;7.27;100.00;98831.31;8387862;28;20036;-63
2022/03/31 04:45:43;;;;;;;63.70;29.60;;;;;;;7.27;100.00;98820.56;8419598;28;20040;-63
2022/03/31 04:49:44;;;;;;;68.78;30.33;;;;;;;7.26;100.00;98826.94;8395974;28;20119;-63
2022/03/31 04:53:44;;;;;;;67.32;30.95;;;;;;;7.21;100.00;98837.34;8389444;28;20390;-63
2022/03/31 04:57:46;;;;;;;70.63;32.00;;;;;;;7.15;100.00;98832.59;8410693;28;20277;-63
2022/03/31 05:01:46;;;;;;;69.65;32.58;;;;;;;7.18;100.00;98834.97;8369774;28;20097;-63
2022/03/31 05:05:47;;;;;;;68.40;30.33;;;;;;;7.14;100.00;98835.44;8386636;28;20325;-63
2022/03/31 05:09:48;;;;;;;64.18;29.98;;;;;;;7.18;100.00;98837.66;8386217;28;20051;-63
2022/03/31 05:13:48;;;;;;;67.05;30.17;;;;;;;7.19;100.00;98831.28;8387796;28;20059;-63
2022/03/31 05:17:48;;;;;;;61.35;28.67;;;;;;;7.11;100.00;98819.66;8377549;28;20048;-63
2022/03/31 05:21:49;;;;;;;69.82;30.02;;;;;;;7.18;100.00;98821.53;8394912;28;20107;-63
2022/03/31 05:25:50;;;;;;;78.68;34.28;;;;;;;7.15;100.00;98821.84;8387133;28;20046;-63
2022/03/31 05:29:50;;;;;;;70.97;33.08;;;;;;;7.04;100.00;98818.59;8387160;28;20032;-63
2022/03/31 05:33:50;;;;;;;77.97;31.08;;;;;;;6.98;100.00;98814.69;8388745;28;20043;-63
2022/03/31 05:37:51;;;;;;;69.95;29.63;;;;;;;6.96;100.00;98815.88;8386444;28;20041;-63
2022/03/31 05:41:51;;;;;;;68.50;29.90;;;;;;;6.93;100.00;98822.41;8374202;28;20565;-63
2022/03/31 05:45:51;;;;;;;71.68;30.70;;;;;;;6.96;100.00;98816.72;8425552;28;20423;-63
2022/03/31 05:49:53;;;;;;;67.10;29.42;;;;;;;6.95;100.00;98815.03;8387862;28;20048;-63
2022/03/31 05:53:53;;;;;;;60.92;28.27;;;;;;;6.89;100.00;98818.34;8390961;28;20497;-63
2022/03/31 05:57:54;;;;;;;61.97;27.60;;;;;;;6.85;100.00;98825.03;8392628;28;20463;-63
2022/03/31 06:01:54;;;;;;;59.20;27.45;;;;;;;6.88;100.00;98819.34;8393761;28;20401;-63
2022/03/31 06:05:55;;;;;;;67.32;27.40;;;;;;;6.81;100.00;98812.94;8388818;28;20040;-63
2022/03/31 06:09:55;;;;;;;54.72;25.73;;;;;;;6.79;100.00;98825.66;8397300;28;20048;-63
2022/03/31 06:13:55;;;;;;;61.85;28.17;;;;;;;6.78;100.00;98824.00;8387605;28;20378;-63
2022/03/31 06:17:56;;;;;;;56.88;25.05;;;;;;;6.78;100.00;98813.25;8394768;28;20462;-63
2022/03/31 06:21:56;;;;;;;65.43;26.77;;;;;;;6.80;100.00;98826.53;8399141;28;20481;-63
2022/03/31 06:25:57;;;;;;;57.15;26.20;;;;;;;6.84;100.00;98823.38;8393723;28;20067;-63
2022/03/31 06:29:58;;;;;;;59.38;26.17;;;;;;;6.77;100.00;98816.91;8397367;28;20033;-63
2022/03/31 06:33:58;;;;;;;53.15;25.83;;;;;;;6.79;100.00;98823.00;8394015;28;20175;-63
2022/03/31 06:37:59;;;;;;;60.20;26.15;;;;;;;6.85;100.00;98830.41;8397156;28;20039;-63
2022/03/31 06:42:00;;;;;;;60.42;26.40;;;;;;;6.79;100.00;98830.19;8397201;28;20037;-63
2022/03/31 06:46:01;;;;;;;60.78;26.05;;;;;;;6.79;100.00;98828.34;8395697;28;20039;-63
2022/03/31 06:50:02;;;;;;;58.60;25.48;;;;;;;6.75;100.00;98821.63;8392550;28;20386;-63
2022/03/31 06:54:03;;;;;;;63.25;27.08;;;;;;;6.76;100.00;98833.19;8372626;28;20049;-63
2022/03/31 06:58:04;;;;;;;66.82;27.38;;;;;;;6.77;100.00;98827.66;8388889;28;20036;-63
2022/03/31 07:02:04;;;;;;;63.15;28.25;;;;;;;6.77;100.00;98830.34;8393506;28;20044;-63
2022/03/31 07:06:06;;;;;;;68.47;28.10;;;;;;;6.76;100.00;98831.34;8392909;28;20056;-63
2022/03/31 07:10:07;;;;;;;65.88;28.05;;;;;;;6.77;100.00;98835.72;8401613;28;20052;-63
2022/03/31 07:14:08;;;;;;;71.75;28.13;;;;;;;6.83;100.00;98837.78;8400475;28;20036;-63
2022/03/31 07:18:08;;;;;;;62.28;26.95;;;;;;;6.84;100.00;98831.41;8393897;28;20035;-63
2022/03/31 07:22:08;;;;;;;68.47;27.58;;;;;;;6.90;100.00;98827.25;8394558;28;20041;-63
2022/03/31 07:26:10;;;;;;;60.67;26.52;;;;;;;6.83;100.00;98826.22;8391493;28;20420;-63
2022/03/31 07:30:13;;;;;;;52.95;24.30;;;;;;;6.82;100.00;98830.72;8391975;28;20035;-63
2022/03/31 07:34:14;;;;;;;52.22;22.27;;;;;;;6.84;100.00;98834.09;8393768;28;20508;-63
2022/03/31 07:38:16;;;;;;;52.58;23.48;;;;;;;6.85;100.00;98840.31;8401583;28;20472;-63
2022/03/31 07:42:17;;;;;;;52.67;24.33;;;;;;;6.92;100.00;98841.38;8399803;28;20060;-63
2022/03/31 07:46:18;;;;;;;49.40;24.20;;;;;;;6.90;100.00;98844.22;8393310;28;20044;-63
2022/03/31 07:50:19;;;;;;;50.90;23.15;;;;;;;6.95;100.00;98835.69;8395923;28;20571;-63
2022/03/31 07:54:20;;;;;;;53.08;23.63;;;;;;;6.92;100.00;98834.13;8391196;28;20051;-63
2022/03/31 07:58:21;;;;;;;51.08;22.35;;;;;;;6.85;100.00;98838.47;8392438;28;20043;-63
2022/03/31 08:02:23;;;;;;;43.75;22.50;;;;;;;6.95;100.00;98838.38;8392280;28;20443;-63
2022/03/31 08:06:24;;;;;;;47.95;21.98;;;;;;;6.93;100.00;98833.16;8392523;28;20043;-63
2022/03/31 08:10:24;;;;;;;43.25;19.95;;;;;;;6.94;100.00;98837.53;8391392;28;20530;-63
2022/03/31 08:14:25;;;;;;;46.08;21.60;;;;;;;6.99;100.00;98831.66;8392056;28;20488;-63
2022/03/31 08:18:28;;;;;;;44.15;21.63;;;;;;;6.98;100.00;98833.50;8391886;28;20040;-63
2022/03/31 08:22:29;;;;;;;50.95;22.52;;;;;;;7.07;100.00;98829.88;8391583;28;20493;-63
2022/03/31 08:26:29;;;;;;;53.80;22.95;;;;;;;7.19;100.00;98828.59;8391769;28;20397;-63
2022/03/31 08:30:29;;;;;;;43.10;20.13;;;;;;;7.27;100.00;98830.47;8390032;28;20464;-63
2022/03/31 08:34:30;;;;;;;49.45;22.67;;;;;;;7.37;100.00;98832.03;8390577;28;20493;-63
2022/03/31 08:38:30;;;;;;;45.30;21.75;;;;;;;7.36;100.00;98841.09;8391683;28;20032;-63
2022/03/31 08:42:31;;;;;;;40.00;21.00;;;;;;;7.45;100.00;98840.13;8391813;28;20500;-63
2022/03/31 08:46:34;;;;;;;49.33;22.83;;;;;;;7.55;100.00;98831.91;8391506;28;20032;-63
2022/03/31 08:50:35;;;;;;;48.10;22.30;;;;;;;7.46;100.00;98841.81;8376012;28;20055;-63
2022/03/31 08:54:36;;;;;;;41.08;20.60;;;;;;;7.26;100.00;98845.75;8391485;28;20037;-63
2022/03/31 08:58:37;;;;;;;51.22;22.70;;;;;;;7.39;100.00;98840.78;8389767;28;20404;-63
2022/03/31 09:02:37;;;;;;;43.92;22.35;;;;;;;7.42;100.00;98845.84;8372937;28;20039;-63
2022/03/31 09:06:38;;;;;;;52.95;22.00;;;;;;;7.40;100.00;98845.16;8394226;28;20036;-63
2022/03/31 09:10:44;;;;;;;50.00;22.08;;;;;;;7.24;100.00;98847.75;8397545;28;20048;-63
2022/03/31 09:14:45;;;;;;;49.83;23.52;;;;;;;7.18;100.00;98852.94;8398162;28;20032;-63
2022/03/31 09:18:45;;;;;;;51.55;23.23;;;;;;;7.01;100.00;98843.06;8397696;28;20044;-63
2022/03/31 09:22:49;;;;;;;49.40;22.17;;;;;;;7.12;100.00;98849.03;8397556;28;20029;-63
2022/03/31 09:26:51;;;;;;;50.55;23.42;;;;;;;7.06;100.00;98848.81;8396165;28;20052;-63
2022/03/31 09:30:53;;;;;;;51.30;22.88;;;;;;;7.17;100.00;98841.31;8395719;28;20570;-63
2022/03/31 09:34:54;;;;;;;54.78;23.60;;;;;;;7.11;100.00;98850.03;8395777;28;20544;-63
2022/03/31 09:38:58;;;;;;;49.38;23.55;;;;;;;7.18;100.00;98853.78;8395454;28;20039;-62
2022/03/31 09:42:59;;;;;;;47.67;23.75;;;;;;;7.06;100.00;98860.44;8397125;28;20404;-63
2022/03/31 09:47:00;;;;;;;56.75;23.83;;;;;;;6.99;100.00;98854.00;8383094;28;20039;-63
2022/03/31 09:51:00;;;;;;;50.88;25.58;;;;;;;7.08;100.00;98853.03;8384467;28;20484;-63
2022/03/31 09:55:01;;;;;;;57.50;25.85;;;;;;;7.12;100.00;98848.19;8383498;28;20502;-63
2022/03/31 09:59:03;;;;;;;55.72;25.05;;;;;;;7.16;100.00;98849.53;8385977;28;20131;-63
2022/03/31 10:03:05;;;;;;;51.85;23.67;;;;;;;7.19;100.00;98843.84;8395448;28;20043;-63
2022/03/31 10:07:06;;;;;;;56.35;24.80;;;;;;;7.32;100.00;98850.47;8389065;28;20033;-63
2022/03/31 10:11:07;;;;;;;55.60;24.15;;;;;;;7.29;100.00;98855.34;8384378;28;20063;-63
2022/03/31 10:15:12;;;;;;;53.80;24.88;;;;;;;7.26;100.00;98845.75;8381876;28;20427;-63
2022/03/31 10:19:28;;;;;;;53.53;24.92;;;;;;;7.14;100.00;98852.41;8380878;28;20557;-63
2022/03/31 10:24:45;;;;;;;59.42;26.55;;;;;;;7.19;100.00;98854.59;8381574;28;20048;-63
2022/03/31 10:27:50;;;;;;;56.38;24.80;;;;;;;7.17;100.00;98854.75;8391635;28;20036;-63
2022/03/31 10:31:50;;;;;;;58.10;26.77;;;;;;;7.03;100.00;98844.63;8390183;28;20025;-63
2022/03/31 10:36:02;;;;;;;51.65;24.15;;;;;;;7.08;100.00;98852.22;8389500;28;20040;-63
2022/03/31 10:40:07;;;;;;;53.28;25.33;;;;;;;7.22;100.00;98844.38;8368340;28;20124;-63
2022/03/31 10:44:16;;;;;;;67.90;33.25;;;;;;;7.28;100.00;98838.38;8388052;28;20040;-63
2022/03/31 10:48:19;;;;;;;35.92;18.10;;;;;;;7.34;100.00;98837.72;8389381;28;20041;-63
2022/03/31 10:52:23;;;;;;;29.23;15.10;;;;;;;7.43;100.00;98842.13;8391386;28;20131;-63
2022/03/31 10:56:26;;;;;;;76.13;37.27;;;;;;;7.45;99.25;98842.81;8381445;28;20036;-63
2022/03/31 11:00:26;;;;;;;29.65;15.30;;;;;;;7.67;100.00;98844.91;8391739;28;20287;-63
2022/03/31 11:04:27;;;;;;;32.08;14.80;;;;;;;7.79;100.00;98849.00;8386558;28;20036;-63
2022/03/31 11:08:27;;;;;;;35.78;17.30;;;;;;;7.37;100.00;98834.72;8406750;28;20033;-63
2022/03/31 11:12:29;;;;;;;28.40;16.35;;;;;;;7.78;100.00;98833.84;8383153;28;20474;-63
2022/03/31 11:16:38;;;;;;;35.10;16.52;;;;;;;7.72;100.00;98839.88;8388714;28;20092;-63
2022/03/31 11:20:39;;;;;;;36.15;17.85;;;;;;;7.82;100.00;98831.69;8372631;28;20036;-63
2022/03/31 11:24:39;;;;;;;33.90;18.05;;;;;;;7.94;100.00;98823.09;8378968;28;20063;-63
2022/03/31 11:28:40;;;;;;;36.95;18.13;;;;;;;7.92;100.00;98827.84;8402095;28;20135;-63
2022/03/31 11:32:44;;;;;;;36.40;18.73;;;;;;;8.01;100.00;98818.78;8377461;28;20044;-63
2022/03/31 11:36:44;;;;;;;36.22;19.65;;;;;;;8.08;100.00;98816.22;8383564;28;20060;-63
2022/03/31 11:40:48;;;;;;;33.97;17.92;;;;;;;8.07;100.00;98820.81;8383855;28;20070;-63
2022/03/31 11:44:48;;;;;;;40.53;18.77;;;;;;;8.04;100.00;98814.91;8382885;28;20435;-63
2022/03/31 11:48:49;;;;;;;35.00;17.80;;;;;;;7.96;100.00;98820.25;8381710;28;20083;-63
2022/03/31 11:52:50;;;;;;;31.23;17.60;;;;;;;8.02;100.00;98816.91;8379789;28;20051;-63
2022/03/31 11:57:09;;;;;;;34.60;17.10;;;;;;;8.45;100.00;98813.09;8386344;28;20032;-63
2022/03/31 12:01:10;;;;;;;33.85;16.40;;;;;;;8.37;100.00;98805.88;8384990;28;20036;-63
2022/03/31 12:05:13;;;;;;;27.15;15.73;;;;;;;8.00;100.00;98814.38;8380890;28;20128;-63
2022/03/31 12:09:14;;;;;;;29.05;16.05;;;;;;;8.24;100.00;98816.31;8384623;28;20033;-63
2022/03/31 12:13:14;;;;;;;29.05;14.93;;;;;;;8.27;100.00;98809.75;8386067;28;20455;-63
2022/03/31 12:17:18;;;;;;;27.73;14.05;;;;;;;8.04;100.00;98807.69;8384200;28;20029;-63
2022/03/31 12:21:19;;;;;;;30.50;15.83;;;;;;;8.15;100.00;98811.91;8388812;28;20048;-63
2022/03/31 12:25:29;;;;;;;30.40;16.70;;;;;;;7.96;100.00;98810.34;8386743;28;20029;-63
2022/03/31 12:29:32;;;;;;;29.73;16.95;;;;;;;7.88;100.00;98804.13;8386328;28;20070;-63
2022/03/31 12:33:34;;;;;;;29.88;17.42;;;;;;;7.65;100.00;98803.88;8369040;28;20039;-63
2022/03/31 12:37:37;;;;;;;41.45;21.75;;;;;;;7.78;100.00;98804.25;8386758;28;20598;-63
2022/03/31 12:41:39;;;;;;;40.70;23.08;;;;;;;7.58;100.00;98797.50;8385235;28;20037;-63
2022/03/31 12:45:39;;;;;;;33.50;18.58;;;;;;;7.53;100.00;98804.34;8393697;28;20041;-63
2022/03/31 12:49:41;;;;;;;41.85;22.90;;;;;;;7.66;100.00;98810.94;8385982;28;20036;-62
2022/03/31 12:53:42;;;;;;;55.13;28.35;;;;;;;7.59;100.00;98809.06;8386226;28;20475;-62
2022/03/31 12:57:54;;;;;;;45.83;25.42;;;;;;;7.26;100.00;98808.13;8387184;28;20099;-62
2022/03/31 13:01:57;;;;;;;64.40;29.48;;;;;;;7.47;100.00;98805.84;8383826;28;20111;-62
2022/03/31 13:05:58;;;;;;;58.77;29.10;;;;;;;7.64;100.00;98799.53;8385067;28;20029;-62
2022/03/31 13:10:01;;;;;;;55.10;28.05;;;;;;;7.55;100.00;98795.13;8385634;28;20485;-62
2022/03/31 13:14:01;;;;;;;51.88;25.65;;;;;;;7.79;100.00;98797.88;8386164;28;20451;-62
2022/03/31 13:18:02;;;;;;;60.17;27.98;;;;;;;7.67;100.00;98801.88;8384661;28;20040;-63
2022/03/31 13:22:05;;;;;;;61.40;27.10;;;;;;;7.85;100.00;98799.06;8387797;28;20032;-62
2022/03/31 13:26:06;;;;;;;59.92;29.17;;;;;;;7.73;100.00;98801.25;8393652;28;20272;-62
2022/03/31 13:30:08;;;;;;;54.53;27.30;;;;;;;7.52;100.00;98800.84;8385046;28;20535;-62
2022/03/31 13:34:10;;;;;;;53.63;26.08;;;;;;;7.50;100.00;98805.53;8379448;28;20532;-62
2022/03/31 13:38:10;;;;;;;46.30;24.38;;;;;;;7.23;100.00;98805.75;8353957;28;20276;-62
2022/03/31 13:42:11;;;;;;;44.20;22.90;;;;;;;6.96;100.00;98799.75;8362969;28;20048;-62
2022/03/31 13:46:12;;;;;;;41.05;21.55;;;;;;;6.75;100.00;98804.66;8364418;28;20048;-62
2022/03/31 13:50:15;;;;;;;44.63;22.55;;;;;;;6.75;100.00;98802.84;8378723;28;20513;-62
2022/03/31 13:54:18;;;;;;;45.50;22.00;;;;;;;6.71;100.00;98795.25;8393872;28;20135;-62
2022/03/31 14:02:39;;;;;;;36.47;18.92;;;;;;;6.83;100.00;98799.34;8391984;28;20036;-61
2022/03/31 14:06:40;;;;;;;41.35;20.35;;;;;;;6.77;100.00;98805.34;8379532;28;20408;-61
2022/03/31 14:10:40;;;;;;;38.78;20.42;;;;;;;6.70;100.00;98805.13;8405472;28;20036;-61
2022/03/31 14:14:41;;;;;;;42.72;22.00;;;;;;;6.61;100.00;98808.75;8412068;28;20059;-61
2022/03/31 14:18:43;;;;;;;38.38;19.27;;;;;;;6.55;100.00;98806.72;8411714;28;20044;-61
2022/03/31 14:22:44;;;;;;;37.90;20.40;;;;;;;6.47;100.00;98804.00;8380757;28;20500;-61
2022/03/31 14:26:46;;;;;;;36.55;18.40;;;;;;;6.56;100.00;98808.38;8379649;28;20447;-61
2022/03/31 14:30:47;;;;;;;30.27;16.08;;;;;;;6.38;100.00;98804.06;8386432;28;20036;-61
2022/03/31 14:34:48;;;;;;;32.28;17.23;;;;;;;6.37;100.00;98799.72;8378223;28;20056;-61
2022/03/31 14:38:49;;;;;;;26.08;13.82;;;;;;;6.21;100.00;98805.78;8377610;28;20039;-61
2022/03/31 14:42:49;;;;;;;28.40;14.68;;;;;;;6.18;100.00;98808.78;8417068;28;20039;-61
2022/03/31 14:46:52;;;;;;;24.42;14.48;;;;;;;6.17;100.00;98809.78;8386228;28;20075;-61
2022/03/31 14:50:52;;;;;;;22.45;12.93;;;;;;;6.10;100.00;98805.19;8400819;28;20059;-62
2022/03/31 14:54:54;;;;;;;25.25;14.93;;;;;;;5.99;100.00;98808.94;8383663;28;20040;-62
2022/03/31 14:58:54;;;;;;;26.10;14.95;;;;;;;5.95;100.00;98816.44;8381995;28;20425;-62
2022/03/31 15:02:55;;;;;;;22.80;13.85;;;;;;;5.87;100.00;98818.22;8370141;28;20067;-62
2022/03/31 15:06:55;;;;;;;25.90;14.13;;;;;;;5.85;100.00;98817.50;8397192;28;20396;-62
2022/03/31 15:15:16;;;;;;;27.00;16.80;;;;;;;5.70;100.00;98814.47;8394444;28;20043;-62
2022/03/31 15:19:17;;;;;;;26.65;17.13;;;;;;;5.91;100.00;98816.91;8387719;28;20048;-62
2022/03/31 15:23:18;;;;;;;27.45;16.48;;;;;;;5.85;100.00;98825.56;8374074;28;20742;-62
2022/03/31 15:27:18;;;;;;;25.45;14.65;;;;;;;5.79;100.00;98813.56;8388483;28;20505;-62
2022/03/31 15:31:19;;;;;;;28.85;15.68;;;;;;;5.82;100.00;98815.13;8367511;28;20122;-62
2022/03/31 15:35:19;;;;;;;21.60;13.55;;;;;;;5.69;100.00;98815.50;8369792;28;20040;-62
2022/03/31 15:39:22;;;;;;;27.85;15.20;;;;;;;5.67;100.00;98824.66;8373059;28;20048;-62
2022/03/31 15:43:22;;;;;;;24.90;14.88;;;;;;;5.70;100.00;98824.34;8388301;28;20043;-62
2022/03/31 15:47:23;;;;;;;29.77;16.80;;;;;;;5.66;100.00;98822.97;8399286;28;20544;-62
2022/03/31 15:51:24;;;;;;;29.17;16.67;;;;;;;5.63;100.00;98828.63;8370596;28;20553;-62
2022/03/31 15:55:26;;;;;;;27.52;16.80;;;;;;;5.64;100.00;98824.97;8375687;28;20436;-62
2022/03/31 15:59:26;;;;;;;23.63;14.52;;;;;;;5.66;100.00;98828.34;8376672;28;20047;-62
2022/03/31 16:03:27;;;;;;;17.75;11.75;;;;;;;5.60;100.00;98839.66;8398451;28;20336;-62
2022/03/31 16:07:28;;;;;;;15.98;10.30;;;;;;;5.66;100.00;98844.41;8380253;28;20040;-62
2022/03/31 16:11:29;;;;;;;11.75;9.15;;;;;;;5.66;100.00;98833.69;8371590;28;20069;-62
2022/03/31 16:15:29;;;;;;;9.52;8.40;;;;;;;5.47;100.00;98832.00;8383782;28;20040;-61
2022/03/31 16:19:30;;;;;;;10.00;8.02;;;;;;;5.55;100.00;98833.94;8379257;28;20141;-61
2022/03/31 16:23:45;;;;;;;12.32;9.68;;;;;;;5.52;100.00;98837.72;8376303;28;20515;-61
2022/03/31 16:27:46;;;;;;;11.45;9.90;;;;;;;5.61;100.00;98841.34;8385816;28;20042;-61
2022/03/31 16:31:46;;;;;;;11.32;9.15;;;;;;;5.52;100.00;98844.94;8380926;28;20491;-62
2022/03/31 16:35:47;;;;;;;12.07;9.90;;;;;;;5.46;100.00;98853.59;8386926;28;20504;-61
2022/03/31 16:39:48;;;;;;;10.65;9.43;;;;;;;5.41;100.00;98846.00;8390899;28;20374;-61
2022/03/31 16:43:49;;;;;;;12.68;10.15;;;;;;;5.39;100.00;98853.31;8378562;28;20463;-61
2022/03/31 16:47:49;;;;;;;12.00;9.43;;;;;;;5.32;100.00;98859.44;8387066;28;20040;-61
2022/03/31 16:51:50;;;;;;;13.07;10.55;;;;;;;5.25;100.00;98858.34;8390237;28;20148;-61
2022/03/31 16:55:51;;;;;;;9.55;8.55;;;;;;;5.14;100.00;98863.88;8381012;28;20059;-61
2022/03/31 16:59:51;;;;;;;13.05;10.23;;;;;;;5.26;100.00;98870.72;8374628;28;20040;-61
2022/03/31 17:03:53;;;;;;;12.27;10.43;;;;;;;5.11;100.00;98872.19;8376435;28;20381;-61
2022/03/31 17:07:53;;;;;;;13.52;10.18;;;;;;;5.11;100.00;98874.88;8380731;28;20044;-61
2022/03/31 17:11:54;;;;;;;12.88;10.23;;;;;;;5.11;100.00;98869.53;8398881;28;20045;-61
2022/03/31 17:15:54;;;;;;;15.27;11.23;;;;;;;5.02;100.00;98881.09;8378864;28;20106;-61
2022/03/31 17:19:55;;;;;;;15.98;10.93;;;;;;;4.96;100.00;98870.97;8377396;28;20063;-61
2022/03/31 17:23:55;;;;;;;15.32;11.45;;;;;;;4.93;100.00;98881.97;8399651;28;20072;-61
2022/03/31 17:27:58;;;;;;;14.90;11.57;;;;;;;5.00;100.00;98883.09;8399689;28;20045;-61
2022/03/31 17:32:02;;;;;;;16.90;12.15;;;;;;;4.87;100.00;98883.41;8392059;28;20501;-61
2022/03/31 17:36:04;;;;;;;15.90;12.40;;;;;;;4.78;100.00;98886.09;8393736;28;20111;-61
2022/03/31 17:40:06;;;;;;;14.25;11.10;;;;;;;4.75;100.00;98889.06;8410909;28;20293;-61
2022/03/31 17:44:06;;;;;;;10.27;8.73;;;;;;;4.68;100.00;98893.31;8387615;28;20128;-61
2022/03/31 17:48:07;;;;;;;21.65;15.93;;;;;;;4.71;100.00;98898.38;8385809;28;20048;-61
2022/03/31 17:52:08;;;;;;;10.70;9.60;;;;;;;4.78;100.00;98900.34;8392438;28;20040;-61
2022/03/31 17:56:10;;;;;;;11.65;9.10;;;;;;;4.82;100.00;98895.53;8392206;28;20412;-61
2022/03/31 18:00:13;;;;;;;8.68;7.50;;;;;;;4.73;100.00;98912.47;8384632;28;20060;-61
2022/03/31 18:04:17;;;;;;;9.77;8.00;;;;;;;4.65;100.00;98907.84;8374311;28;20328;-61
2022/03/31 18:08:18;;;;;;;8.02;7.07;;;;;;;4.53;100.00;98905.44;8378196;28;20048;-61
2022/03/31 18:12:18;;;;;;;7.70;6.90;;;;;;;4.55;100.00;98917.72;8389799;28;20040;-61
2022/03/31 18:16:19;;;;;;;7.85;7.15;;;;;;;4.62;100.00;98909.94;8386510;28;20094;-61
2022/03/31 18:20:21;;;;;;;7.82;7.15;;;;;;;4.59;100.00;98918.25;8368354;28;20466;-61
2022/03/31 18:24:24;;;;;;;11.32;9.43;;;;;;;4.56;100.00;98914.03;8389926;28;20028;-61
2022/03/31 18:28:24;;;;;;;8.05;7.28;;;;;;;4.46;100.00;98925.72;8391769;28;20089;-61
2022/03/31 18:34:00;;;;;;;15.23;11.70;;;;;;;4.50;100.00;98922.63;8389341;28;20166;-61
2022/03/31 18:36:46;;;;;;;15.55;12.73;;;;;;;4.50;100.00;98932.47;8396304;28;20040;-61
2022/03/31 18:40:49;;;;;;;21.67;15.75;;;;;;;4.48;100.00;98934.47;8405520;28;20124;-61
2022/03/31 18:44:50;;;;;;;12.88;11.23;;;;;;;4.49;100.00;98930.78;8396623;28;20039;-61